createdAt,value
2023-04-22T00:02:06.929Z,93075.44
2023-04-22T00:04:35.066Z,93078.53
2023-04-22T00:07:02.737Z,93072.28
2023-04-22T00:09:30.081Z,93077.56
2023-04-22T00:11:59.126Z,93071.47
2023-04-22T00:14:26.458Z,93066.75
2023-04-22T00:16:53.840Z,93070.25
2023-04-22T00:19:22.183Z,93071.41
2023-04-22T00:21:49.727Z,93076.03
2023-04-22T00:24:17.158Z,93080.59
2023-04-22T00:26:44.796Z,93085.16
2023-04-22T00:29:12.114Z,93078.75
2023-04-22T00:31:39.424Z,93074.06
2023-04-22T00:34:07.498Z,93077.59
2023-04-22T00:36:34.791Z,93077.06
2023-04-22T00:39:02.169Z,93077.56
2023-04-22T00:41:31.339Z,93081.72
2023-04-22T00:44:00.786Z,93071.44
2023-04-22T00:46:28.591Z,93072.75
2023-04-22T00:48:57.628Z,93070.50
2023-04-22T00:51:24.981Z,93066.53
2023-04-22T00:53:52.682Z,93064.34
2023-04-22T00:56:22.041Z,93065.87
2023-04-22T00:58:49.457Z,93072.97
2023-04-22T01:01:17.673Z,93074.56
2023-04-22T01:03:48.455Z,93081.25
2023-04-22T01:06:18.959Z,93076.34
2023-04-22T01:08:46.740Z,93087.97
2023-04-22T01:11:15.028Z,93081.66
2023-04-22T01:13:42.692Z,93082.22
2023-04-22T01:16:11.109Z,93079.25
2023-04-22T01:18:38.631Z,93072.13
2023-04-22T01:21:07.329Z,93076.94
2023-04-22T01:23:35.171Z,93073.22
2023-04-22T01:26:02.841Z,93076.81
2023-04-22T01:28:31.665Z,93082.63
2023-04-22T01:30:59.853Z,93082.78
2023-04-22T01:33:27.396Z,93087.03
2023-04-22T01:35:54.759Z,93087.31
2023-04-22T01:38:22.623Z,93084.09
2023-04-22T01:40:50.147Z,93078.69
2023-04-22T01:43:17.632Z,93081.16
2023-04-22T01:45:45.514Z,93078.69
2023-04-22T01:48:13.032Z,93080.78
2023-04-22T01:50:40.444Z,93083.34
2023-04-22T01:53:08.798Z,93080.37
2023-04-22T01:55:37.417Z,93075.88
2023-04-22T01:58:05.542Z,93084.88
2023-04-22T02:00:33.165Z,93080.75
2023-04-22T02:03:01.444Z,93080.16
2023-04-22T02:05:28.995Z,93085.28
2023-04-22T02:07:56.393Z,93088.44
2023-04-22T02:10:24.355Z,93086.31
2023-04-22T02:12:51.598Z,93091.25
2023-04-22T02:15:18.966Z,93086.53
2023-04-22T02:17:46.660Z,93083.78
2023-04-22T02:20:14.265Z,93078.22
2023-04-22T02:22:43.889Z,93078.53
2023-04-22T02:25:14.397Z,93084.50
2023-04-22T02:27:44.300Z,93080.37
2023-04-22T02:30:12.917Z,93081.91
2023-04-22T02:32:40.626Z,93079.69
2023-04-22T02:35:08.298Z,93091.53
2023-04-22T02:37:35.978Z,93088.53
2023-04-22T02:40:04.121Z,93093.22
2023-04-22T02:42:31.733Z,93089.53
2023-04-22T02:44:59.503Z,93087.44
2023-04-22T02:47:26.842Z,93090.91
2023-04-22T02:49:54.160Z,93094.50
2023-04-22T02:52:21.998Z,93089.81
2023-04-22T02:54:49.325Z,93095.00
2023-04-22T02:57:16.582Z,93084.00
2023-04-22T02:59:44.193Z,93089.53
2023-04-22T03:02:13.026Z,93083.13
2023-04-22T03:04:41.105Z,93092.66
2023-04-22T03:07:09.348Z,93092.06
2023-04-22T03:09:36.853Z,93093.00
2023-04-22T03:12:04.562Z,93092.69
2023-04-22T03:14:32.293Z,93094.00
2023-04-22T03:17:00.029Z,93099.19
2023-04-22T03:19:27.606Z,93102.78
2023-04-22T03:21:56.676Z,93095.69
2023-04-22T03:24:24.651Z,93100.00
2023-04-22T03:26:52.498Z,93098.81
2023-04-22T03:29:20.292Z,93104.38
2023-04-22T03:31:48.819Z,93096.31
2023-04-22T03:34:17.033Z,93102.00
2023-04-22T03:36:45.745Z,93104.63
2023-04-22T03:39:13.302Z,93112.38
2023-04-22T03:41:41.387Z,93117.72
2023-04-22T03:44:09.871Z,93115.34
2023-04-22T03:46:37.706Z,93112.97
2023-04-22T03:49:06.874Z,93105.94
2023-04-22T03:51:34.783Z,93112.47
2023-04-22T03:54:03.630Z,93114.28
2023-04-22T03:56:31.399Z,93110.09
2023-04-22T03:58:59.165Z,93108.72
2023-04-22T04:01:26.742Z,93105.72
2023-04-22T04:04:08.289Z,93117.41
2023-04-22T04:06:37.009Z,93112.97
2023-04-22T04:09:05.822Z,93116.00
2023-04-22T04:11:33.387Z,93109.63
2023-04-22T04:14:01.182Z,93118.87
2023-04-22T04:16:29.624Z,93123.00
2023-04-22T04:19:00.915Z,93119.72
2023-04-22T04:21:29.988Z,93120.66
2023-04-22T04:23:57.584Z,93130.06
2023-04-22T04:26:28.277Z,93120.56
2023-04-22T04:29:01.241Z,93122.47
2023-04-22T04:31:37.340Z,93116.34
2023-04-22T04:34:07.884Z,93122.59
2023-04-22T04:36:37.007Z,93112.47
2023-04-22T04:39:12.380Z,93126.97
2023-04-22T04:41:42.852Z,93130.91
2023-04-22T04:44:13.921Z,93130.16
2023-04-22T04:46:42.268Z,93102.34
2023-04-22T04:49:12.872Z,93136.25
2023-04-22T04:51:48.705Z,93147.91
2023-04-22T04:54:20.278Z,93145.50
2023-04-22T04:56:51.808Z,93140.63
2023-04-22T04:59:19.921Z,93141.94
2023-04-22T05:01:49.500Z,93144.09
2023-04-22T05:04:17.436Z,93145.84
2023-04-22T05:06:45.559Z,93144.94
2023-04-22T05:09:14.042Z,93152.12
2023-04-22T05:11:44.884Z,93144.47
2023-04-22T05:14:14.101Z,93154.97
2023-04-22T05:16:55.622Z,93148.66
2023-04-22T05:19:24.265Z,93160.06
2023-04-22T05:21:52.256Z,93154.81
2023-04-22T05:24:19.848Z,93170.94
2023-04-22T05:26:48.152Z,93158.19
2023-04-22T05:29:16.139Z,93154.31
2023-04-22T05:31:43.987Z,93156.06
2023-04-22T05:34:12.596Z,93154.81
2023-04-22T05:36:40.351Z,93156.06
2023-04-22T05:39:07.838Z,93165.66
2023-04-22T05:41:35.834Z,93166.97
2023-04-22T05:44:03.864Z,93157.94
2023-04-22T05:46:31.528Z,93167.50
2023-04-22T05:49:02.764Z,93169.41
2023-04-22T05:51:31.521Z,93164.37
2023-04-22T05:53:59.619Z,93163.22
2023-04-22T05:56:27.314Z,93164.09
2023-04-22T05:58:54.676Z,93164.66
2023-04-22T06:01:22.975Z,93161.69
2023-04-22T06:03:52.557Z,93164.87
2023-04-22T06:06:20.568Z,93159.09
2023-04-22T06:08:48.076Z,93168.47
2023-04-22T06:11:15.891Z,93162.53
2023-04-22T06:13:43.302Z,93162.06
2023-04-22T06:16:11.430Z,93164.22
2023-04-22T06:18:39.676Z,93159.53
2023-04-22T06:21:08.549Z,93165.13
2023-04-22T06:23:37.479Z,93173.22
2023-04-22T06:26:06.360Z,93166.00
2023-04-22T06:28:33.990Z,93169.59
2023-04-22T06:31:02.743Z,93163.09
2023-04-22T06:33:30.596Z,93162.00
2023-04-22T06:35:57.955Z,93157.78
2023-04-22T06:38:25.673Z,93175.56
2023-04-22T06:40:57.927Z,93165.84
2023-04-22T06:43:26.337Z,93164.78
2023-04-22T06:45:58.285Z,93164.81
2023-04-22T06:48:28.246Z,93161.19
2023-04-22T06:50:59.352Z,93163.56
2023-04-22T06:53:27.032Z,93157.41
2023-04-22T06:55:54.939Z,93155.66
2023-04-22T06:58:23.057Z,93162.28
2023-04-22T07:00:50.505Z,93162.72
2023-04-22T07:03:18.012Z,93155.97
2023-04-22T07:05:48.900Z,93152.31
2023-04-22T07:08:16.512Z,93161.72
2023-04-22T07:10:43.910Z,93153.47
2023-04-22T07:13:17.427Z,93153.56
2023-04-22T07:15:46.388Z,93153.19
2023-04-22T07:18:14.831Z,93146.00
2023-04-22T07:20:42.102Z,93147.34
2023-04-22T07:23:12.950Z,93143.47
2023-04-22T07:25:41.477Z,93144.94
2023-04-22T07:28:12.548Z,93143.13
2023-04-22T07:30:42.225Z,93142.78
2023-04-22T07:33:10.087Z,93142.19
2023-04-22T07:35:37.467Z,93137.34
2023-04-22T07:38:05.417Z,93138.91
2023-04-22T07:40:33.827Z,93143.31
2023-04-22T07:43:01.556Z,93140.31
2023-04-22T07:45:29.708Z,93140.50
2023-04-22T07:47:58.060Z,93136.88
2023-04-22T07:50:26.404Z,93134.06
2023-04-22T07:52:54.504Z,93135.66
2023-04-22T07:55:23.177Z,93141.22
2023-04-22T07:57:50.949Z,93132.28
2023-04-22T08:00:18.539Z,93129.34
2023-04-22T08:02:47.813Z,93122.53
2023-04-22T08:05:15.755Z,93127.00
2023-04-22T08:07:43.610Z,93126.75
2023-04-22T08:10:11.649Z,93123.59
2023-04-22T08:12:39.447Z,93118.87
2023-04-22T08:15:07.582Z,93118.22
2023-04-22T08:17:35.598Z,93110.78
2023-04-22T08:20:06.580Z,93111.78
2023-04-22T08:22:36.373Z,93112.50
2023-04-22T08:25:04.396Z,93108.47
2023-04-22T08:27:31.806Z,93108.84
2023-04-22T08:29:59.523Z,93106.03
2023-04-22T08:32:27.027Z,93105.66
2023-04-22T08:35:03.540Z,93107.28
2023-04-22T08:37:32.486Z,93100.84
2023-04-22T08:39:59.901Z,93089.66
2023-04-22T08:42:28.096Z,93093.16
2023-04-22T08:44:57.421Z,93084.69
2023-04-22T08:47:28.934Z,93089.09
2023-04-22T08:49:59.255Z,93089.06
2023-04-22T08:52:26.846Z,93096.00
2023-04-22T08:54:54.187Z,93096.47
2023-04-22T08:57:21.963Z,93085.59
2023-04-22T08:59:50.543Z,93085.66
2023-04-22T09:02:21.470Z,93085.78
2023-04-22T09:04:51.829Z,93073.69
2023-04-22T09:07:30.192Z,93069.69
2023-04-22T09:09:58.596Z,93072.16
2023-04-22T09:12:26.458Z,93068.75
2023-04-22T09:14:54.816Z,93069.25
2023-04-22T09:17:38.575Z,93067.53
2023-04-22T09:20:07.920Z,93064.22
2023-04-22T09:22:42.157Z,93053.81
2023-04-22T09:25:36.237Z,93066.34
2023-04-22T09:28:04.096Z,93062.47
2023-04-22T09:30:37.980Z,93056.00
2023-04-22T09:33:07.791Z,93054.97
2023-04-22T09:35:41.171Z,93054.62
2023-04-22T09:38:11.636Z,93050.13
2023-04-22T09:40:44.046Z,93049.50
2023-04-22T09:43:12.456Z,93046.56
2023-04-22T09:45:43.091Z,93051.41
2023-04-22T09:48:18.596Z,93042.31
2023-04-22T09:50:53.633Z,93044.06
2023-04-22T09:53:30.123Z,93028.06
2023-04-22T09:56:04.725Z,93022.53
2023-04-22T09:58:32.202Z,93034.72
2023-04-22T10:01:01.233Z,93033.91
2023-04-22T10:03:29.448Z,93035.25
2023-04-22T10:05:58.079Z,93042.28
2023-04-22T10:08:25.530Z,93035.31
2023-04-22T10:10:54.271Z,93036.06
2023-04-22T10:13:22.676Z,93030.34
2023-04-22T10:15:53.202Z,93038.34
2023-04-22T10:18:24.745Z,93032.38
2023-04-22T10:20:54.504Z,93038.34
2023-04-22T10:23:24.921Z,93037.84
2023-04-22T10:25:57.485Z,93034.87
2023-04-22T10:28:29.014Z,93038.25
2023-04-22T10:30:57.304Z,93041.97
2023-04-22T10:33:27.693Z,93038.25
2023-04-22T10:36:14.440Z,93040.31
2023-04-22T10:39:02.056Z,93035.78
2023-04-22T10:41:32.683Z,93047.94
2023-04-22T10:44:09.422Z,93053.84
2023-04-22T10:46:56.238Z,93058.72
2023-04-22T10:49:26.995Z,93060.50
2023-04-22T10:52:04.358Z,93052.44
2023-04-22T10:54:36.796Z,93058.22
2023-04-22T10:57:06.184Z,93056.38
2023-04-22T10:59:50.353Z,93062.12
2023-04-22T11:02:19.745Z,93067.72
2023-04-22T11:04:48.042Z,93062.31
2023-04-22T11:07:27.392Z,93063.97
2023-04-22T11:10:07.853Z,93062.34
2023-04-22T11:12:38.762Z,93070.31
2023-04-22T11:15:11.130Z,93068.41
2023-04-22T11:17:40.457Z,93066.75
2023-04-22T11:20:08.949Z,93070.84
2023-04-22T11:22:45.071Z,93070.22
2023-04-22T11:25:12.855Z,93065.69
2023-04-22T11:27:43.686Z,93063.16
2023-04-22T11:30:13.057Z,93060.25
2023-04-22T11:32:48.888Z,93050.13
2023-04-22T11:35:19.849Z,93058.94
2023-04-22T11:37:49.048Z,93065.34
2023-04-22T11:40:28.943Z,93047.59
2023-04-22T11:43:00.125Z,93049.72
2023-04-22T11:45:29.026Z,93057.66
2023-04-22T11:47:56.954Z,93055.25
2023-04-22T11:50:27.053Z,93059.09
2023-04-22T11:52:56.936Z,93068.59
2023-04-22T11:55:32.451Z,93057.59
2023-04-22T11:58:10.818Z,93068.81
2023-04-22T12:00:40.904Z,93056.87
2023-04-22T12:03:21.073Z,93062.97
2023-04-22T12:06:08.718Z,93054.50
2023-04-22T12:08:42.755Z,93059.88
2023-04-22T12:11:12.488Z,93060.97
2023-04-22T12:13:46.260Z,93053.12
2023-04-22T12:16:19.275Z,93053.78
2023-04-22T12:18:52.998Z,93058.25
2023-04-22T12:21:22.777Z,93045.69
2023-04-22T12:23:53.976Z,93043.00
2023-04-22T12:26:26.570Z,93041.06
2023-04-22T12:28:57.034Z,93042.97
2023-04-22T12:31:25.442Z,93047.84
2023-04-22T12:33:53.921Z,93043.75
2023-04-22T12:36:22.242Z,93038.66
2023-04-22T12:38:51.535Z,93045.03
2023-04-22T12:41:19.145Z,93045.91
2023-04-22T12:43:47.904Z,93048.97
2023-04-22T12:46:15.730Z,93039.03
2023-04-22T12:48:43.818Z,93038.22
2023-04-22T12:51:11.533Z,93039.19
2023-04-22T12:53:40.753Z,93043.34
2023-04-22T12:56:08.579Z,93052.34
2023-04-22T12:58:36.404Z,93045.91
2023-04-22T13:01:03.779Z,93038.56
2023-04-22T13:03:31.393Z,93034.06
2023-04-22T13:05:59.282Z,93040.66
2023-04-22T13:08:26.929Z,93039.84
2023-04-22T13:10:54.348Z,93041.84
2023-04-22T13:13:22.086Z,93043.72
2023-04-22T13:15:54.356Z,93047.19
2023-04-22T13:18:23.676Z,93042.19
2023-04-22T13:20:51.702Z,93034.41
2023-04-22T13:23:21.966Z,93044.28
2023-04-22T13:25:50.805Z,93036.19
2023-04-22T13:28:18.247Z,93048.25
2023-04-22T13:30:46.079Z,93046.03
2023-04-22T13:33:13.754Z,93055.88
2023-04-22T13:35:41.201Z,93053.06
2023-04-22T13:38:08.513Z,93046.09
2023-04-22T13:40:36.481Z,93053.41
2023-04-22T13:43:04.520Z,93052.91
2023-04-22T13:45:31.972Z,93060.38
2023-04-22T13:47:59.795Z,93056.66
2023-04-22T13:50:27.366Z,93063.69
2023-04-22T13:52:55.098Z,93050.91
2023-04-22T13:55:22.804Z,93061.47
2023-04-22T13:57:52.117Z,93069.66
2023-04-22T14:00:21.057Z,93063.56
2023-04-22T14:02:49.164Z,93070.28
2023-04-22T14:05:17.237Z,93064.72
2023-04-22T14:07:44.705Z,93066.72
2023-04-22T14:10:14.078Z,93061.50
2023-04-22T14:12:41.951Z,93059.34
2023-04-22T14:15:11.397Z,93065.16
2023-04-22T14:17:40.325Z,93064.22
2023-04-22T14:20:08.965Z,93066.75
2023-04-22T14:22:36.300Z,93068.62
2023-04-22T14:25:04.432Z,93064.00
2023-04-22T14:27:33.129Z,93068.16
2023-04-22T14:30:04.392Z,93063.94
2023-04-22T14:32:32.728Z,93065.00
2023-04-22T14:35:00.295Z,93070.34
2023-04-22T14:37:27.869Z,93069.91
2023-04-22T14:39:55.737Z,93067.22
2023-04-22T14:42:24.356Z,93078.06
2023-04-22T14:44:51.790Z,93079.00
2023-04-22T14:47:19.655Z,93089.66
2023-04-22T14:49:47.055Z,93082.66
2023-04-22T14:52:14.872Z,93079.44
2023-04-22T14:54:42.631Z,93082.78
2023-04-22T14:57:10.030Z,93078.47
2023-04-22T14:59:37.466Z,93086.66
2023-04-22T15:02:05.793Z,93088.56
2023-04-22T15:04:33.559Z,93083.88
2023-04-22T15:07:01.943Z,93078.91
2023-04-22T15:09:29.832Z,93075.78
2023-04-22T15:11:59.882Z,93072.09
2023-04-22T15:14:27.342Z,93073.75
2023-04-22T15:16:55.151Z,93075.50
2023-04-22T15:19:22.530Z,93069.00
2023-04-22T15:21:49.904Z,93068.69
2023-04-22T15:24:17.772Z,93070.84
2023-04-22T15:26:45.130Z,93067.91
2023-04-22T15:29:13.140Z,93068.56
2023-04-22T15:31:41.179Z,93077.00
2023-04-22T15:34:08.821Z,93076.84
2023-04-22T15:36:36.621Z,93084.16
2023-04-22T15:39:05.686Z,93089.72
2023-04-22T15:41:36.329Z,93090.88
2023-04-22T15:44:06.447Z,93094.50
2023-04-22T15:46:35.503Z,93098.81
2023-04-22T15:49:03.734Z,93092.00
2023-04-22T15:51:31.597Z,93100.44
2023-04-22T15:53:58.962Z,93104.88
2023-04-22T15:56:26.369Z,93118.81
2023-04-22T15:58:54.152Z,93113.03
2023-04-22T16:01:21.646Z,93112.81
2023-04-22T16:03:49.674Z,93115.97
2023-04-22T16:06:18.820Z,93123.59
2023-04-22T16:08:46.361Z,93123.63
2023-04-22T16:11:15.422Z,93126.41
2023-04-22T16:13:43.074Z,93126.22
2023-04-22T16:16:11.324Z,93126.94
2023-04-22T16:18:41.407Z,93132.22
2023-04-22T16:21:10.758Z,93125.66
2023-04-22T16:23:38.162Z,93122.47
2023-04-22T16:26:06.571Z,93120.13
2023-04-22T16:28:33.986Z,93120.16
2023-04-22T16:31:01.521Z,93120.94
2023-04-22T16:33:29.296Z,93124.59
2023-04-22T16:35:57.463Z,93127.28
2023-04-22T16:38:25.204Z,93134.44
2023-04-22T16:40:54.494Z,93142.28
2023-04-22T16:43:22.215Z,93146.78
2023-04-22T16:45:49.637Z,93154.56
2023-04-22T16:48:17.403Z,93149.31
2023-04-22T16:50:44.738Z,93159.81
2023-04-22T16:53:12.117Z,93153.50
2023-04-22T16:55:39.856Z,93157.88
2023-04-22T16:58:07.286Z,93161.94
2023-04-22T17:00:34.784Z,93172.28
2023-04-22T17:03:02.791Z,93170.78
2023-04-22T17:05:30.577Z,93178.34
2023-04-22T17:07:58.007Z,93175.66
2023-04-22T17:10:25.764Z,93183.22
2023-04-22T17:12:53.556Z,93184.75
2023-04-22T17:15:20.907Z,93188.78
2023-04-22T17:17:48.623Z,93201.75
2023-04-22T17:20:16.070Z,93200.56
2023-04-22T17:22:43.470Z,93207.81
2023-04-22T17:25:12.328Z,93208.22
2023-04-22T17:27:45.884Z,93215.78
2023-04-22T17:30:15.048Z,93217.50
2023-04-22T17:32:46.066Z,93222.16
2023-04-22T17:35:15.233Z,93232.75
2023-04-22T17:37:42.975Z,93231.94
2023-04-22T17:40:11.329Z,93235.22
2023-04-22T17:42:45.685Z,93242.38
2023-04-22T17:45:16.534Z,93246.06
2023-04-22T17:47:44.789Z,93248.09
2023-04-22T17:50:15.432Z,93254.44
2023-04-22T17:52:45.158Z,93257.53
2023-04-22T17:55:20.677Z,93260.41
2023-04-22T17:57:48.563Z,93242.09
2023-04-22T18:00:28.421Z,93256.97
2023-04-22T18:02:57.151Z,93254.34
2023-04-22T18:05:32.669Z,93259.84
2023-04-22T18:08:02.842Z,93256.91
2023-04-22T18:10:30.926Z,93266.97
2023-04-22T18:12:58.316Z,93271.66
2023-04-22T18:15:26.117Z,93275.72
2023-04-22T18:17:53.544Z,93271.25
2023-04-22T18:20:22.394Z,93281.62
2023-04-22T18:22:52.284Z,93286.44
2023-04-22T18:25:19.837Z,93281.13
2023-04-22T18:27:47.819Z,93287.59
2023-04-22T18:30:15.720Z,93285.50
2023-04-22T18:32:43.217Z,93291.56
2023-04-22T18:35:10.673Z,93296.25
2023-04-22T18:37:38.393Z,93303.50
2023-04-22T18:40:06.508Z,93301.00
2023-04-22T18:42:34.131Z,93297.66
2023-04-22T18:45:04.725Z,93292.91
2023-04-22T18:47:32.914Z,93305.28
2023-04-22T18:50:00.623Z,93305.00
2023-04-22T18:52:28.607Z,93309.53
2023-04-22T18:54:55.997Z,93309.28
2023-04-22T18:57:23.372Z,93307.00
2023-04-22T18:59:51.282Z,93311.28
2023-04-22T19:02:18.803Z,93315.34
2023-04-22T19:04:46.354Z,93313.44
2023-04-22T19:07:14.235Z,93308.13
2023-04-22T19:09:41.753Z,93322.72
2023-04-22T19:12:14.818Z,93321.94
2023-04-22T19:14:42.911Z,93322.13
2023-04-22T19:17:11.173Z,93314.16
2023-04-22T19:19:38.856Z,93323.75
2023-04-22T19:22:07.038Z,93324.25
2023-04-22T19:24:35.917Z,93325.19
2023-04-22T19:27:03.622Z,93322.28
2023-04-22T19:29:31.638Z,93328.78
2023-04-22T19:32:00.121Z,93327.13
2023-04-22T19:34:28.858Z,93331.91
2023-04-22T19:36:56.554Z,93331.47
2023-04-22T19:39:24.211Z,93337.75
2023-04-22T19:41:51.676Z,93328.84
2023-04-22T19:44:19.566Z,93329.69
2023-04-22T19:46:47.268Z,93326.66
2023-04-22T19:49:15.118Z,93320.88
2023-04-22T19:51:44.757Z,93332.37
2023-04-22T19:54:13.699Z,93330.41
2023-04-22T19:56:41.679Z,93328.09
2023-04-22T19:59:09.652Z,93328.50
2023-04-22T20:01:37.283Z,93321.91
2023-04-22T20:04:05.547Z,93328.62
2023-04-22T20:06:34.047Z,93330.38
2023-04-22T20:09:02.506Z,93331.03
2023-04-22T20:11:31.212Z,93328.97
2023-04-22T20:13:59.443Z,93325.06
2023-04-22T20:16:27.983Z,93329.38
2023-04-22T20:18:55.842Z,93319.50
2023-04-22T20:21:24.029Z,93318.00
2023-04-22T20:23:56.018Z,93314.63
2023-04-22T20:26:24.568Z,93314.00
2023-04-22T20:28:53.998Z,93317.59
2023-04-22T20:31:23.336Z,93315.56
2023-04-22T20:33:51.591Z,93312.31
2023-04-22T20:36:20.486Z,93317.06
2023-04-22T20:38:49.891Z,93321.69
2023-04-22T20:41:21.039Z,93322.28
2023-04-22T20:43:48.535Z,93322.53
2023-04-22T20:46:16.308Z,93316.75
2023-04-22T20:48:44.231Z,93321.28
2023-04-22T20:51:12.564Z,93320.59
2023-04-22T20:53:40.327Z,93321.50
2023-04-22T20:56:08.376Z,93320.28
2023-04-22T20:58:35.824Z,93318.34
2023-04-22T21:01:03.403Z,93320.62
2023-04-22T21:03:33.368Z,93330.16
2023-04-22T21:06:01.489Z,93317.47
2023-04-22T21:08:29.190Z,93331.41
2023-04-22T21:10:57.416Z,93328.69
2023-04-22T21:13:25.132Z,93327.66
2023-04-22T21:15:59.642Z,93328.34
2023-04-22T21:18:29.160Z,93325.06
2023-04-22T21:20:57.305Z,93326.31
2023-04-22T21:23:25.337Z,93329.03
2023-04-22T21:25:59.685Z,93322.78
2023-04-22T21:28:28.108Z,93325.50
2023-04-22T21:30:56.554Z,93321.75
2023-04-22T21:33:25.427Z,93321.41
2023-04-22T21:35:53.426Z,93319.16
2023-04-22T21:38:21.463Z,93314.72
2023-04-22T21:40:48.933Z,93312.16
2023-04-22T21:43:16.407Z,93311.44
2023-04-22T21:45:44.144Z,93315.25
2023-04-22T21:48:11.467Z,93317.03
2023-04-22T21:50:38.799Z,93315.97
2023-04-22T21:53:06.838Z,93321.06
2023-04-22T21:55:34.199Z,93323.44
2023-04-22T21:58:01.601Z,93323.34
2023-04-22T22:00:29.357Z,93325.50
2023-04-22T22:02:57.052Z,93327.56
2023-04-22T22:05:24.497Z,93329.94
2023-04-22T22:07:53.116Z,93322.06
2023-04-22T22:10:20.879Z,93327.97
2023-04-22T22:12:49.064Z,93329.78
2023-04-22T22:15:16.884Z,93332.84
2023-04-22T22:17:45.117Z,93336.16
2023-04-22T22:20:18.380Z,93331.25
2023-04-22T22:22:46.658Z,93338.69
2023-04-22T22:25:16.384Z,93332.84
2023-04-22T22:27:49.466Z,93332.72
2023-04-22T22:30:19.107Z,93335.16
2023-04-22T22:32:46.452Z,93331.63
2023-04-22T22:35:14.562Z,93332.28
2023-04-22T22:37:42.257Z,93321.63
2023-04-22T22:40:10.279Z,93325.50
2023-04-22T22:42:37.662Z,93331.09
2023-04-22T22:45:05.965Z,93330.69
2023-04-22T22:47:33.382Z,93326.63
2023-04-22T22:50:00.832Z,93336.38
2023-04-22T22:52:28.668Z,93331.66
2023-04-22T22:54:56.138Z,93330.22
2023-04-22T22:57:23.603Z,93332.31
2023-04-22T22:59:51.349Z,93330.44
2023-04-22T23:02:18.919Z,93321.69
2023-04-22T23:04:46.723Z,93327.41
2023-04-22T23:07:16.667Z,93325.63
2023-04-22T23:09:43.995Z,93328.50
2023-04-22T23:12:11.648Z,93325.53
2023-04-22T23:14:39.476Z,93331.19
2023-04-22T23:17:07.018Z,93326.47
2023-04-22T23:19:35.370Z,93327.41
2023-04-22T23:22:05.075Z,93332.91
2023-04-22T23:24:32.601Z,93330.66
2023-04-22T23:27:00.301Z,93331.72
2023-04-22T23:29:28.310Z,93327.34
2023-04-22T23:31:56.778Z,93333.56
2023-04-22T23:34:25.062Z,93329.09
2023-04-22T23:36:53.565Z,93330.38
2023-04-22T23:39:20.858Z,93327.03
2023-04-22T23:41:48.150Z,93328.62
2023-04-22T23:44:15.996Z,93326.00
2023-04-22T23:46:43.444Z,93321.97
2023-04-22T23:49:11.019Z,93327.53
2023-04-22T23:51:38.935Z,93325.19
2023-04-22T23:54:06.476Z,93331.94
2023-04-22T23:56:34.054Z,93335.47
2023-04-22T23:59:01.986Z,93336.66
